Jill P. Harvey — WDC2466 — position and weather

sailwx.info

Track history (hours):
 
Tides and Currents Weather Stations Pressure Air Temp Water Temp Dewpoint Dewpoint Depression Visibility Wind Speed Wind Dir Waves Ship Positions

Jill P. Harvey

Owner: Florida Marine, LLC, Mandeville, LA. More information available from US FCC via Universal Licensing System and Coast Guard Vessel Documentation Center.

Last reported at 2017-Nov-08 18:38 UTC. Time now 2017-Dec-12 06:21 UTC.
Position N 29°33' W 090°25'.
Warning: this ship's position is 33 days out of date.

Length 35 m; draft 3.2 m.

Type: Towing. MMSI: 366993550.

Date/timePositionNaut miles runAvg speedWind from/ knotsBaromVisibWave heightAir tempDewpointWater temp
2017-Nov-08 18:38N 29°33' W 090°25'1 5.2
2017-Nov-08 18:28N 29°33' W 090°26'2 5.2
2017-Nov-08 18:01N 29°33' W 090°28'3 5.2
2017-Nov-08 17:30N 29°34' W 090°31'2 3.9
2017-Nov-08 17:00N 29°34' W 090°34'2 3.8
2017-Nov-08 16:30N 29°35' W 090°36'2 4.0
2017-Nov-08 16:00N 29°35' W 090°38'2 3.4
2017-Nov-08 15:31N 29°36' W 090°40'2 3.3
2017-Nov-08 15:00N 29°37' W 090°41'1 2.1
2017-Nov-08 14:30N 29°36' W 090°43'2 3.0
2017-Nov-08 14:00N 29°35' W 090°43'1 2.7
2017-Nov-08 13:30N 29°34' W 090°44'2 3.2
2017-Nov-08 13:00N 29°33' W 090°45'2 3.7
2017-Nov-08 12:31N 29°32' W 090°47'2 4.8
2017-Nov-08 12:00N 29°32' W 090°50'3 4.9
2017-Nov-08 11:27N 29°33' W 090°53'3 5.2
2017-Nov-08 10:58N 29°34' W 090°56'55 3.7
2017-Nov-07 20:17N 29°51' W 091°56'1 1.8
2017-Nov-07 20:00N 29°51' W 091°57'2 4.5
2017-Nov-07 19:30N 29°50' W 091°59'3 5.0
2017-Nov-07 19:00N 29°49' W 092°02'2 4.5
2017-Nov-07 18:31N 29°48' W 092°04'2 4.4
2017-Nov-07 18:00N 29°48' W 092°07'2 4.5
2017-Nov-07 17:30N 29°47' W 092°09'2 4.5
2017-Nov-07 17:01N 29°47' W 092°12'2 4.5
2017-Nov-07 16:31N 29°48' W 092°14'3 5.3
2017-Nov-07 16:00N 29°49' W 092°17'3 3.9
2017-Nov-07 15:18N 29°50' W 092°20'1 4.4
2017-Nov-07 14:59N 29°51' W 092°21'39 4.3
2017-Nov-07 05:57N 29°56' W 093°06'2 4.3
2017-Nov-07 05:30N 29°56' W 093°08'2 4.0
2017-Nov-07 05:00N 29°57' W 093°10'2 4.5
2017-Nov-07 04:31N 29°59' W 093°12'2 4.5
2017-Nov-07 04:00N 30°00' W 093°14'2 3.9
2017-Nov-07 03:30N 30°02' W 093°15'2 3.1
2017-Nov-07 03:00N 30°03' W 093°16'2 4.0
2017-Nov-07 02:30N 30°05' W 093°17'1 1.8
2017-Nov-07 02:01N 30°05' W 093°18'1 2.4
2017-Nov-07 01:30N 30°06' W 093°19'2 4.2
2017-Nov-07 01:01N 30°04' W 093°21'2 3.4
2017-Nov-07 00:30N 30°04' W 093°22'2 4.7
2017-Nov-07 00:00N 30°04' W 093°25'2 4.8
2017-Nov-06 23:31N 30°04' W 093°28'2 5.0
2017-Nov-06 23:00N 30°04' W 093°31'  
Track history (hours):
 
Tides and Currents Weather Stations Pressure Air Temp Water Temp Dewpoint Dewpoint Depression Visibility Wind Speed Wind Dir Waves Ship Positions

Jill P. Harvey

Owner: Florida Marine, LLC, Mandeville, LA. More information available from US FCC via Universal Licensing System and Coast Guard Vessel Documentation Center.

Last reported at 2017-Nov-08 18:38 UTC. Time now 2017-Dec-12 06:21 UTC.
Position N 29°33' W 090°25'.
Warning: this ship's position is 33 days out of date.

Length 35 m; draft 3.2 m.

Type: Towing. MMSI: 366993550.

Date/timePositionNaut miles runAvg speedWind from/ knotsBaromVisibWave heightAir tempDewpointWater temp
2017-Nov-08 18:38N 29°33' W 090°25'1 5.2
2017-Nov-08 18:28N 29°33' W 090°26'2 5.2
2017-Nov-08 18:01N 29°33' W 090°28'3 5.2
2017-Nov-08 17:30N 29°34' W 090°31'2 3.9
2017-Nov-08 17:00N 29°34' W 090°34'2 3.8
2017-Nov-08 16:30N 29°35' W 090°36'2 4.0
2017-Nov-08 16:00N 29°35' W 090°38'2 3.4
2017-Nov-08 15:31N 29°36' W 090°40'2 3.3
2017-Nov-08 15:00N 29°37' W 090°41'1 2.1
2017-Nov-08 14:30N 29°36' W 090°43'2 3.0
2017-Nov-08 14:00N 29°35' W 090°43'1 2.7
2017-Nov-08 13:30N 29°34' W 090°44'2 3.2
2017-Nov-08 13:00N 29°33' W 090°45'2 3.7
2017-Nov-08 12:31N 29°32' W 090°47'2 4.8
2017-Nov-08 12:00N 29°32' W 090°50'3 4.9
2017-Nov-08 11:27N 29°33' W 090°53'3 5.2
2017-Nov-08 10:58N 29°34' W 090°56'55 3.7
2017-Nov-07 20:17N 29°51' W 091°56'1 1.8
2017-Nov-07 20:00N 29°51' W 091°57'2 4.5
2017-Nov-07 19:30N 29°50' W 091°59'3 5.0
2017-Nov-07 19:00N 29°49' W 092°02'2 4.5
2017-Nov-07 18:31N 29°48' W 092°04'2 4.4
2017-Nov-07 18:00N 29°48' W 092°07'2 4.5
2017-Nov-07 17:30N 29°47' W 092°09'2 4.5
2017-Nov-07 17:01N 29°47' W 092°12'2 4.5
2017-Nov-07 16:31N 29°48' W 092°14'3 5.3
2017-Nov-07 16:00N 29°49' W 092°17'3 3.9
2017-Nov-07 15:18N 29°50' W 092°20'1 4.4
2017-Nov-07 14:59N 29°51' W 092°21'39 4.3
2017-Nov-07 05:57N 29°56' W 093°06'2 4.3
2017-Nov-07 05:30N 29°56' W 093°08'2 4.0
2017-Nov-07 05:00N 29°57' W 093°10'2 4.5
2017-Nov-07 04:31N 29°59' W 093°12'2 4.5
2017-Nov-07 04:00N 30°00' W 093°14'2 3.9
2017-Nov-07 03:30N 30°02' W 093°15'2 3.1
2017-Nov-07 03:00N 30°03' W 093°16'2 4.0
2017-Nov-07 02:30N 30°05' W 093°17'1 1.8
2017-Nov-07 02:01N 30°05' W 093°18'1 2.4
2017-Nov-07 01:30N 30°06' W 093°19'2 4.2
2017-Nov-07 01:01N 30°04' W 093°21'2 3.4
2017-Nov-07 00:30N 30°04' W 093°22'2 4.7
2017-Nov-07 00:00N 30°04' W 093°25'2 4.8
2017-Nov-06 23:31N 30°04' W 093°28'2 5.0
2017-Nov-06 23:00N 30°04' W 093°31'  

Dump ship's entire track history